createdAt,value
2017-11-12T00:00:51.487Z,85.57
2017-11-12T00:03:26.076Z,85.11
2017-11-12T00:06:00.576Z,84.90
2017-11-12T00:08:34.935Z,84.69
2017-11-12T00:11:09.492Z,84.99
2017-11-12T00:13:43.996Z,84.61
2017-11-12T00:16:18.514Z,84.89
2017-11-12T00:18:53.097Z,84.14
2017-11-12T00:21:27.517Z,82.31
2017-11-12T00:24:02.092Z,80.54
2017-11-12T00:26:36.607Z,79.67
2017-11-12T00:29:11.240Z,79.23
2017-11-12T00:31:45.473Z,78.73
2017-11-12T00:34:19.963Z,78.62
2017-11-12T00:36:54.788Z,78.15
2017-11-12T00:39:29.413Z,77.20
2017-11-12T00:42:03.635Z,77.26
2017-11-12T00:44:38.064Z,77.43
2017-11-12T00:47:12.811Z,77.83
2017-11-12T00:49:47.760Z,77.51
2017-11-12T00:52:22.158Z,77.42
2017-11-12T00:54:56.736Z,77.53
2017-11-12T00:57:31.893Z,77.99
2017-11-12T01:00:14.683Z,78.38
2017-11-12T01:02:49.362Z,77.69
2017-11-12T01:05:23.797Z,78.36
2017-11-12T01:07:58.295Z,78.14
2017-11-12T01:10:32.797Z,78.31
2017-11-12T01:13:07.355Z,78.51
2017-11-12T01:15:41.767Z,78.56
2017-11-12T01:18:16.345Z,78.75
2017-11-12T01:20:51.029Z,78.51
2017-11-12T01:23:25.556Z,78.67
2017-11-12T01:26:00.048Z,78.23
2017-11-12T01:28:34.554Z,78.54
2017-11-12T01:31:09.039Z,78.29
2017-11-12T01:33:43.580Z,78.72
2017-11-12T01:36:17.977Z,78.79
2017-11-12T01:38:52.542Z,79.08
2017-11-12T01:41:26.978Z,79.03
2017-11-12T01:44:01.479Z,78.87
2017-11-12T01:46:35.911Z,78.67
2017-11-12T01:49:10.489Z,78.71
2017-11-12T01:51:44.615Z,79.28
2017-11-12T01:54:19.056Z,79.08
2017-11-12T01:56:53.540Z,79.12
2017-11-12T01:59:28.068Z,79.71
2017-11-12T02:02:02.192Z,79.57
2017-11-12T02:04:36.688Z,80.28
2017-11-12T02:07:11.184Z,80.69
2017-11-12T02:09:45.568Z,81.20
2017-11-12T02:12:20.006Z,81.90
2017-11-12T02:14:54.432Z,82.71
2017-11-12T02:17:28.815Z,83.31
2017-11-12T02:22:43.645Z,84.40
2017-11-12T02:25:17.744Z,86.76
2017-11-12T02:27:52.555Z,85.93
2017-11-12T02:30:27.064Z,86.91
2017-11-12T02:33:01.294Z,86.27
2017-11-12T02:35:35.785Z,86.12
2017-11-12T02:38:09.932Z,85.35
2017-11-12T02:40:44.020Z,84.92
2017-11-12T02:43:18.772Z,84.86
2017-11-12T02:45:53.220Z,85.00
2017-11-12T02:48:27.373Z,83.97
2017-11-12T02:51:01.418Z,84.76
2017-11-12T02:53:35.672Z,84.40
2017-11-12T02:56:09.532Z,83.32
2017-11-12T02:58:44.048Z,83.68
2017-11-12T03:01:18.480Z,83.60
2017-11-12T03:03:53.215Z,83.69
2017-11-12T03:06:27.652Z,82.84
2017-11-12T03:09:02.235Z,82.95
2017-11-12T03:11:36.956Z,82.42
2017-11-12T03:14:11.456Z,82.28
2017-11-12T03:16:45.931Z,82.43
2017-11-12T03:19:20.516Z,82.06
2017-11-12T03:21:55.039Z,81.69
2017-11-12T03:24:29.591Z,81.51
2017-11-12T03:27:04.181Z,81.07
2017-11-12T03:29:38.882Z,81.65
2017-11-12T03:32:13.270Z,81.72
2017-11-12T03:34:47.699Z,82.54
2017-11-12T03:37:22.112Z,82.61
2017-11-12T03:39:56.731Z,82.55
2017-11-12T03:42:31.175Z,81.96
2017-11-12T03:45:14.821Z,82.42
2017-11-12T03:47:49.216Z,82.06
2017-11-12T03:50:23.706Z,81.98
2017-11-12T03:52:58.224Z,82.09
2017-11-12T03:55:32.759Z,81.78
2017-11-12T03:58:07.380Z,81.97
2017-11-12T04:00:41.436Z,81.16
2017-11-12T04:03:15.899Z,81.40
2017-11-12T04:05:50.409Z,81.58
2017-11-12T04:08:24.936Z,82.19
2017-11-12T04:10:59.459Z,82.38
2017-11-12T04:13:34.003Z,82.00
2017-11-12T04:16:08.488Z,80.63
2017-11-12T04:18:43.079Z,81.39
2017-11-12T04:21:17.504Z,81.82
2017-11-12T04:23:52.747Z,81.15
2017-11-12T04:26:27.545Z,81.62
2017-11-12T04:29:02.150Z,79.94
2017-11-12T04:31:36.924Z,81.19
2017-11-12T04:34:11.456Z,80.32
2017-11-12T04:36:45.867Z,78.47
2017-11-12T04:39:20.384Z,77.70
2017-11-12T04:41:54.837Z,78.83
2017-11-12T04:44:29.367Z,78.93
2017-11-12T04:47:03.768Z,79.12
2017-11-12T04:49:38.403Z,78.06
2017-11-12T04:52:12.866Z,80.08
2017-11-12T04:54:47.431Z,79.95
2017-11-12T04:57:21.910Z,80.34
2017-11-12T04:59:56.698Z,79.76
2017-11-12T05:02:31.100Z,79.33
2017-11-12T05:05:14.548Z,79.60
2017-11-12T05:07:48.873Z,79.71
2017-11-12T05:10:23.322Z,79.30
2017-11-12T05:12:58.264Z,78.90
2017-11-12T05:15:32.681Z,79.36
2017-11-12T05:18:07.088Z,79.34
2017-11-12T05:20:41.579Z,76.87
2017-11-12T05:23:16.194Z,78.20
2017-11-12T05:25:50.623Z,78.91
2017-11-12T05:28:25.232Z,78.04
2017-11-12T05:30:59.620Z,78.67
2017-11-12T05:33:34.245Z,77.26
2017-11-12T05:36:08.684Z,77.10
2017-11-12T05:38:43.210Z,78.33
2017-11-12T05:41:17.784Z,78.39
2017-11-12T05:43:52.402Z,78.78
2017-11-12T05:46:26.851Z,79.97
2017-11-12T05:49:01.292Z,80.95
2017-11-12T05:51:35.696Z,80.11
2017-11-12T05:54:10.211Z,79.97
2017-11-12T05:56:44.586Z,77.57
2017-11-12T05:59:19.281Z,72.73
2017-11-12T06:01:53.683Z,72.00
2017-11-12T06:04:28.218Z,74.08
2017-11-12T06:07:02.533Z,77.84
2017-11-12T06:09:37.084Z,80.32
2017-11-12T06:12:11.649Z,80.76
2017-11-12T06:14:45.829Z,75.83
2017-11-12T06:17:20.331Z,72.83
2017-11-12T06:19:54.687Z,75.36
2017-11-12T06:22:28.887Z,76.76
2017-11-12T06:27:46.825Z,77.05
2017-11-12T06:30:21.716Z,77.96
2017-11-12T06:32:56.056Z,79.33
2017-11-12T06:35:30.297Z,80.25
2017-11-12T06:38:04.796Z,80.46
2017-11-12T06:40:39.244Z,79.51
2017-11-12T06:43:13.804Z,81.38
2017-11-12T06:45:48.183Z,81.15
2017-11-12T06:48:22.659Z,80.60
2017-11-12T06:50:57.312Z,79.74
2017-11-12T06:53:31.858Z,79.25
2017-11-12T06:56:06.375Z,80.37
2017-11-12T06:58:41.080Z,82.00
2017-11-12T07:01:15.519Z,81.67
2017-11-12T07:03:50.095Z,82.19
2017-11-12T07:06:24.540Z,81.84
2017-11-12T07:08:58.988Z,80.95
2017-11-12T07:11:33.419Z,81.53
2017-11-12T07:14:07.983Z,81.58
2017-11-12T07:16:42.447Z,82.83
2017-11-12T07:19:16.978Z,82.31
2017-11-12T07:21:51.375Z,82.54
2017-11-12T07:24:26.261Z,79.64
2017-11-12T07:27:00.748Z,81.17
2017-11-12T07:29:35.399Z,79.88
2017-11-12T07:32:09.875Z,80.44
2017-11-12T07:34:44.467Z,80.28
2017-11-12T07:37:18.851Z,79.75
2017-11-12T07:39:53.295Z,79.57
2017-11-12T07:42:27.799Z,79.90
2017-11-12T07:47:42.323Z,80.88
2017-11-12T07:50:16.755Z,80.59
2017-11-12T07:52:50.906Z,80.89
2017-11-12T07:55:25.750Z,81.35
2017-11-12T07:58:00.279Z,81.02
2017-11-12T08:00:34.671Z,81.07
2017-11-12T08:03:09.076Z,81.01
2017-11-12T08:05:43.304Z,81.05
2017-11-12T08:08:17.804Z,81.64
2017-11-12T08:10:52.436Z,81.30
2017-11-12T08:13:27.103Z,81.12
2017-11-12T08:16:01.594Z,81.61
2017-11-12T08:18:35.656Z,81.96
2017-11-12T08:21:10.212Z,81.36
2017-11-12T08:23:44.855Z,81.15
2017-11-12T08:26:19.256Z,80.37
2017-11-12T08:28:53.859Z,81.18
2017-11-12T08:31:27.948Z,81.59
2017-11-12T08:34:02.401Z,81.10
2017-11-12T08:36:36.708Z,79.73
2017-11-12T08:39:11.053Z,80.11
2017-11-12T08:41:45.262Z,80.09
2017-11-12T08:44:19.605Z,80.37
2017-11-12T08:46:54.085Z,79.71
2017-11-12T08:49:28.633Z,78.46
2017-11-12T08:52:02.523Z,78.38
2017-11-12T08:54:36.651Z,78.57
2017-11-12T08:57:11.841Z,78.72
2017-11-12T08:59:46.400Z,78.67
2017-11-12T09:02:20.790Z,78.60
2017-11-12T09:04:55.416Z,78.23
2017-11-12T09:07:29.809Z,75.57
2017-11-12T09:10:13.352Z,76.16
2017-11-12T09:12:47.981Z,74.86
2017-11-12T09:15:22.465Z,74.69
2017-11-12T09:17:57.076Z,73.18
2017-11-12T09:20:31.519Z,74.33
2017-11-12T09:23:06.034Z,73.53
2017-11-12T09:25:40.438Z,73.40
2017-11-12T09:28:15.428Z,72.83
2017-11-12T09:30:49.987Z,72.50
2017-11-12T09:33:24.399Z,71.86
2017-11-12T09:35:58.538Z,71.86
2017-11-12T09:38:33.059Z,72.16
2017-11-12T09:41:07.427Z,72.10
2017-11-12T09:43:41.841Z,72.58
2017-11-12T09:46:17.002Z,71.68
2017-11-12T09:48:51.478Z,71.13
2017-11-12T09:51:25.861Z,71.20
2017-11-12T09:54:00.556Z,71.46
2017-11-12T09:56:34.995Z,73.88
2017-11-12T09:59:09.552Z,74.49
2017-11-12T10:01:43.972Z,74.36
2017-11-12T10:04:18.569Z,75.25
2017-11-12T10:06:52.988Z,75.23
2017-11-12T10:09:27.518Z,74.97
2017-11-12T10:12:01.938Z,75.58
2017-11-12T10:14:36.519Z,74.94
2017-11-12T10:17:11.100Z,73.86
2017-11-12T10:19:47.264Z,75.17
2017-11-12T10:22:21.715Z,74.84
2017-11-12T10:24:56.239Z,74.17
2017-11-12T10:27:30.774Z,74.21
2017-11-12T10:30:14.583Z,73.01
2017-11-12T10:32:49.020Z,73.20
2017-11-12T10:35:23.443Z,72.88
2017-11-12T10:37:57.917Z,71.20
2017-11-12T10:40:32.300Z,74.02
2017-11-12T10:43:06.757Z,75.28
2017-11-12T10:45:41.244Z,74.57
2017-11-12T10:48:15.880Z,74.21
2017-11-12T10:50:50.288Z,73.11
2017-11-12T10:53:24.727Z,72.63
2017-11-12T10:55:59.123Z,74.41
2017-11-12T10:58:33.721Z,74.19
2017-11-12T11:01:08.091Z,73.73
2017-11-12T11:03:42.746Z,74.68
2017-11-12T11:06:17.180Z,73.96
2017-11-12T11:08:51.774Z,74.35
2017-11-12T11:11:26.606Z,71.88
2017-11-12T11:14:01.172Z,71.31
2017-11-12T11:16:35.559Z,71.96
2017-11-12T11:19:10.732Z,72.74
2017-11-12T11:21:45.368Z,71.92
2017-11-12T11:24:19.953Z,72.43
2017-11-12T11:26:54.745Z,72.86
2017-11-12T11:29:29.217Z,72.80
2017-11-12T11:32:03.664Z,71.87
2017-11-12T11:34:38.254Z,71.64
2017-11-12T11:37:12.931Z,72.61
2017-11-12T11:39:47.609Z,74.13
2017-11-12T11:42:22.053Z,74.55
2017-11-12T11:44:56.848Z,74.99
2017-11-12T11:47:31.350Z,75.07
2017-11-12T11:50:13.311Z,76.36
2017-11-12T11:52:47.896Z,76.95
2017-11-12T11:55:22.343Z,76.50
2017-11-12T11:57:56.953Z,76.24
2017-11-12T12:00:31.110Z,77.85
2017-11-12T12:03:05.696Z,78.20
2017-11-12T12:05:40.307Z,79.01
2017-11-12T12:08:14.820Z,79.45
2017-11-12T12:10:49.280Z,79.83
2017-11-12T12:13:23.958Z,79.61
2017-11-12T12:15:58.402Z,78.63
2017-11-12T12:18:32.827Z,79.55
2017-11-12T12:21:07.212Z,79.42
2017-11-12T12:23:41.895Z,78.72
2017-11-12T12:26:16.344Z,79.06
2017-11-12T12:28:50.774Z,78.35
2017-11-12T12:31:25.177Z,79.37
2017-11-12T12:33:59.804Z,79.92
2017-11-12T12:36:34.224Z,79.52
2017-11-12T12:39:08.545Z,79.61
2017-11-12T12:41:43.399Z,80.76
2017-11-12T12:44:17.847Z,80.41
2017-11-12T12:46:52.393Z,79.87
2017-11-12T12:49:27.076Z,79.85
2017-11-12T12:52:01.701Z,80.57
2017-11-12T12:54:36.276Z,80.97
2017-11-12T12:57:10.684Z,81.31
2017-11-12T12:59:45.216Z,81.69
2017-11-12T13:02:19.628Z,82.24
2017-11-12T13:04:54.064Z,82.29
2017-11-12T13:07:28.607Z,82.54
2017-11-12T13:12:43.849Z,82.39
2017-11-12T13:15:18.189Z,82.71
2017-11-12T13:17:52.856Z,82.85
2017-11-12T13:20:27.265Z,82.30
2017-11-12T13:23:03.367Z,82.14
2017-11-12T13:25:37.921Z,80.32
2017-11-12T13:28:12.408Z,79.77
2017-11-12T13:30:46.785Z,79.68
2017-11-12T13:33:21.355Z,79.62
2017-11-12T13:35:55.623Z,79.37
2017-11-12T13:38:30.148Z,79.95
2017-11-12T13:41:04.804Z,79.65
2017-11-12T13:43:39.467Z,79.01
2017-11-12T13:46:13.948Z,79.25
2017-11-12T13:48:48.357Z,78.93
2017-11-12T13:51:22.751Z,78.86
2017-11-12T13:53:57.154Z,79.08
2017-11-12T13:56:31.711Z,78.65
2017-11-12T13:59:06.116Z,78.29
2017-11-12T14:01:40.683Z,78.83
2017-11-12T14:04:15.088Z,79.15
2017-11-12T14:06:49.676Z,79.41
2017-11-12T14:09:24.197Z,79.85
2017-11-12T14:11:58.671Z,79.60
2017-11-12T14:14:33.055Z,79.58
2017-11-12T14:17:07.577Z,80.11
2017-11-12T14:19:42.159Z,79.92
2017-11-12T14:22:17.103Z,79.96
2017-11-12T14:24:51.632Z,80.04
2017-11-12T14:27:26.260Z,79.90
2017-11-12T14:30:00.810Z,80.48
2017-11-12T14:32:35.247Z,80.31
2017-11-12T14:35:15.690Z,80.43
2017-11-12T14:37:50.105Z,80.30
2017-11-12T14:40:24.495Z,80.67
2017-11-12T14:42:58.971Z,80.56
2017-11-12T14:45:33.559Z,81.04
2017-11-12T14:48:08.015Z,81.21
2017-11-12T14:50:42.313Z,80.92
2017-11-12T14:53:16.787Z,80.79
2017-11-12T14:55:51.272Z,80.89
2017-11-12T14:58:26.271Z,80.62
2017-11-12T15:01:00.774Z,80.40
2017-11-12T15:03:35.159Z,80.79
2017-11-12T15:06:09.674Z,80.72
2017-11-12T15:08:44.243Z,81.24
2017-11-12T15:11:18.631Z,81.45
2017-11-12T15:13:53.986Z,81.56
2017-11-12T15:16:28.551Z,81.85
2017-11-12T15:19:03.221Z,81.68
2017-11-12T15:21:37.716Z,81.81
2017-11-12T15:24:12.277Z,82.21
2017-11-12T15:26:46.957Z,82.29
2017-11-12T15:29:21.545Z,82.44
2017-11-12T15:31:55.964Z,82.18
2017-11-12T15:34:30.499Z,82.79
2017-11-12T15:37:04.887Z,83.10
2017-11-12T15:39:39.464Z,83.31
2017-11-12T15:42:14.294Z,83.04
2017-11-12T15:44:48.752Z,83.17
2017-11-12T15:47:23.091Z,83.42
2017-11-12T15:49:57.466Z,83.71
2017-11-12T15:52:31.915Z,83.58
2017-11-12T15:55:14.743Z,83.86
2017-11-12T15:57:49.280Z,84.37
2017-11-12T16:00:23.819Z,84.50
2017-11-12T16:02:58.032Z,84.72
2017-11-12T16:05:32.549Z,84.67
2017-11-12T16:08:07.054Z,85.16
2017-11-12T16:10:41.535Z,85.57
2017-11-12T16:13:15.980Z,86.03
2017-11-12T16:15:50.375Z,86.46
2017-11-12T16:18:25.010Z,86.75
2017-11-12T16:20:59.474Z,86.97
2017-11-12T16:23:34.232Z,87.21
2017-11-12T16:26:08.659Z,87.46
2017-11-12T16:28:43.177Z,87.58
2017-11-12T16:31:17.571Z,87.93
2017-11-12T16:33:52.168Z,88.00
2017-11-12T16:36:26.396Z,88.16
2017-11-12T16:39:00.670Z,87.73
2017-11-12T16:41:35.201Z,87.14
2017-11-12T16:44:09.575Z,86.51
2017-11-12T16:46:43.843Z,85.86
2017-11-12T16:49:18.186Z,86.16
2017-11-12T16:51:52.451Z,85.89
2017-11-12T16:54:27.001Z,86.28
2017-11-12T16:57:01.298Z,86.26
2017-11-12T16:59:36.170Z,84.83
2017-11-12T17:02:10.683Z,85.62
2017-11-12T17:04:45.867Z,85.09
2017-11-12T17:07:20.490Z,85.00
2017-11-12T17:09:55.138Z,85.30
2017-11-12T17:12:29.728Z,84.61
2017-11-12T17:17:46.507Z,84.97
2017-11-12T17:20:21.101Z,85.22
2017-11-12T17:22:55.619Z,85.38
2017-11-12T17:25:29.910Z,85.05
2017-11-12T17:28:05.376Z,83.26
2017-11-12T17:30:39.759Z,84.09
2017-11-12T17:33:14.388Z,84.39
2017-11-12T17:35:48.931Z,84.68
2017-11-12T17:38:23.563Z,84.21
2017-11-12T17:40:57.991Z,84.25
2017-11-12T17:43:32.568Z,84.59
2017-11-12T17:46:07.056Z,84.73
2017-11-12T17:48:41.651Z,84.04
2017-11-12T17:51:16.189Z,84.30
2017-11-12T17:53:50.797Z,84.36
2017-11-12T17:56:25.215Z,83.49
2017-11-12T17:58:59.809Z,83.43
2017-11-12T18:01:34.261Z,83.65
2017-11-12T18:04:08.956Z,83.94
2017-11-12T18:06:43.351Z,83.66
2017-11-12T18:09:17.855Z,83.83
2017-11-12T18:11:52.267Z,83.86
2017-11-12T18:14:27.203Z,83.41
2017-11-12T18:17:01.779Z,83.40
2017-11-12T18:19:36.343Z,83.48
2017-11-12T18:22:10.811Z,83.69
2017-11-12T18:24:45.408Z,83.29
2017-11-12T18:27:19.951Z,83.33
2017-11-12T18:29:54.551Z,83.19
2017-11-12T18:32:29.105Z,82.64
2017-11-12T18:37:44.416Z,83.29
2017-11-12T18:40:18.720Z,83.68
2017-11-12T18:42:53.077Z,83.69
2017-11-12T18:45:27.364Z,83.47
2017-11-12T18:48:01.260Z,83.54
2017-11-12T18:50:35.615Z,83.67
2017-11-12T18:53:10.067Z,83.84
2017-11-12T18:55:46.684Z,83.97
2017-11-12T18:58:23.780Z,84.30
2017-11-12T19:04:07.796Z,83.87
2017-11-12T19:06:47.804Z,83.70
2017-11-12T19:09:33.001Z,83.56
2017-11-12T19:12:13.642Z,83.48
2017-11-12T19:14:47.949Z,83.58
2017-11-12T19:20:31.564Z,83.89
2017-11-12T19:23:07.434Z,84.05
2017-11-12T19:25:42.672Z,83.90
2017-11-12T19:28:18.076Z,83.29
2017-11-12T19:30:52.428Z,82.60
2017-11-12T19:33:26.792Z,83.25
2017-11-12T19:36:01.124Z,83.62
2017-11-12T19:38:35.667Z,83.84
2017-11-12T19:41:10.117Z,83.76
2017-11-12T19:43:44.603Z,83.39
2017-11-12T19:46:19.020Z,83.52
2017-11-12T19:48:53.666Z,83.73
2017-11-12T19:51:28.141Z,82.35
2017-11-12T19:54:02.691Z,82.74
2017-11-12T19:56:37.108Z,82.51
2017-11-12T19:59:11.783Z,82.82
2017-11-12T20:01:46.255Z,83.81
2017-11-12T20:04:20.696Z,84.34
2017-11-12T20:06:55.160Z,83.86
2017-11-12T20:09:29.579Z,83.62
2017-11-12T20:12:04.057Z,83.76
2017-11-12T20:14:38.666Z,83.96
2017-11-12T20:17:13.172Z,84.81
2017-11-12T20:19:48.542Z,86.71
2017-11-12T20:22:22.971Z,87.28
2017-11-12T20:24:57.698Z,85.67
2017-11-12T20:27:32.237Z,85.89
2017-11-12T20:30:14.919Z,85.84
2017-11-12T20:32:49.397Z,85.58
2017-11-12T20:35:23.860Z,85.23
2017-11-12T20:37:58.315Z,85.82
2017-11-12T20:40:32.795Z,86.07
2017-11-12T20:43:07.268Z,86.33
2017-11-12T20:45:41.535Z,86.00
2017-11-12T20:48:15.852Z,85.45
2017-11-12T20:50:50.166Z,85.05
2017-11-12T20:53:24.784Z,84.37
2017-11-12T20:56:00.460Z,84.20
2017-11-12T20:58:34.751Z,84.09
2017-11-12T21:01:12.413Z,83.71
2017-11-12T21:03:46.639Z,82.41
2017-11-12T21:06:20.953Z,81.59
2017-11-12T21:08:55.303Z,80.56
2017-11-12T21:11:29.731Z,80.36
2017-11-12T21:14:05.143Z,79.67
2017-11-12T21:16:39.700Z,78.41
2017-11-12T21:19:31.871Z,77.88
2017-11-12T21:22:21.063Z,77.04
2017-11-12T21:24:55.443Z,75.88
2017-11-12T21:27:29.945Z,76.13
2017-11-12T21:30:13.023Z,74.94
2017-11-12T21:33:04.084Z,74.17
2017-11-12T21:35:40.652Z,74.04
2017-11-12T21:38:14.859Z,72.18
2017-11-12T21:40:49.365Z,71.99
2017-11-12T21:43:23.954Z,71.93
2017-11-12T21:45:58.739Z,70.65
2017-11-12T21:48:33.056Z,70.78
2017-11-12T21:51:07.952Z,70.98
2017-11-12T21:53:42.590Z,70.46
2017-11-12T21:56:17.009Z,70.27
2017-11-12T21:58:51.392Z,70.68
2017-11-12T22:01:25.890Z,70.87
2017-11-12T22:04:00.502Z,70.91
2017-11-12T22:06:35.033Z,70.79
2017-11-12T22:09:09.744Z,69.77
2017-11-12T22:11:44.357Z,70.11
2017-11-12T22:14:19.286Z,69.95
2017-11-12T22:16:54.028Z,69.69
2017-11-12T22:19:28.564Z,69.76
2017-11-12T22:22:03.053Z,69.15
2017-11-12T22:24:37.711Z,68.64
2017-11-12T22:27:12.147Z,68.47
2017-11-12T22:29:46.713Z,67.66
2017-11-12T22:32:21.151Z,67.86
2017-11-12T22:34:55.743Z,66.89
2017-11-12T22:37:30.196Z,66.09
2017-11-12T22:40:13.491Z,66.36
2017-11-12T22:42:48.012Z,66.30
2017-11-12T22:45:22.496Z,66.69
2017-11-12T22:47:57.111Z,66.77
2017-11-12T22:50:31.604Z,67.12
2017-11-12T22:53:05.444Z,67.25
2017-11-12T22:55:39.882Z,67.82
2017-11-12T22:58:14.256Z,67.83
2017-11-12T23:00:53.991Z,67.46
2017-11-12T23:03:28.643Z,66.28
2017-11-12T23:06:03.258Z,65.27
2017-11-12T23:08:37.823Z,65.96
2017-11-12T23:11:12.184Z,65.76
2017-11-12T23:13:46.584Z,66.34
2017-11-12T23:16:20.987Z,66.53
2017-11-12T23:18:55.534Z,67.00
2017-11-12T23:21:30.168Z,67.88
2017-11-12T23:24:04.785Z,68.31
2017-11-12T23:26:40.012Z,68.56
2017-11-12T23:29:14.799Z,69.20
2017-11-12T23:31:49.229Z,69.60
2017-11-12T23:34:23.733Z,69.71
2017-11-12T23:36:58.398Z,69.10
2017-11-12T23:39:32.949Z,67.57
2017-11-12T23:42:07.428Z,67.87
2017-11-12T23:44:41.924Z,68.18
2017-11-12T23:47:16.424Z,68.00
2017-11-12T23:49:50.987Z,68.46
2017-11-12T23:52:25.435Z,67.89
2017-11-12T23:55:00.772Z,67.68
2017-11-12T23:57:35.408Z,67.64
